Premia de Mar, Spain
Current Conditions -  °F | °C
As of 1:30 PM on Saturday 22 Nov 2014 (Local Time) from LELL Reporting Station
Scattered Clouds Scattered Clouds  
Wind Chill: 66°   Ceiling: Unl
Heat Index: 66°   Visibility: 5mi
Dew Point: 61°   Wind: 2mph
Humidity: 83%   Direction: NA
Pressure: 30.06"   Gusts: NA
Location:  41.49°N, 2.36°E
Report Text: LELL 221230Z VRB02KT 8000 FEW010 SCT020 19/16 Q1018
Loading
Personal Weather Stations






























Interactive Weather Map New forecast layout! Learn more

10-Day Weather Forecast

Advertisements
Track Severe Weather on mobile